Erie, PA

12:41 AM EST on February 11, 2016 (GMT -0500)
Willow St. Weather | | Change Station
CLOSE
Current Station
Personal Weather Station
Location: Wesleyville, PA
Elevation: 735 ft
Nearby Weather Stations
Active Advisory: Lake Effect Snow Advisory

Elev 735 ft 42.14 °N, 80.01 °W | Updated 1 minute ago

Overcast
Overcast
16.7 °F
Feels Like 8 °F
N
5.7
Wind Variable Wind from WNW
Gusts 16.8 mph

Today
High -- | Low -- °F
--% Chance of Precip.
Yesterday
High -- | Low -- °F
Precip. -- in
Pressure 29.89 in
Visibility 5.0 miles
Clouds Mostly Cloudy 3000 ft
Overcast 3700 ft
Windchill 8 °F
Dew Point -0 °F
Humidity 46%
Rainfall 0.00 in
Snow Depth Not available.
7:22 AM 5:47 PM
Waxing Crescent, 9% visible
SPECI KERI 110500Z 29016G24KT 5SM HZ BKN030 OVC037 M08/M15 A2989 RMK AO2 SNE0459 P0000 T10781150 $
Pressure 29.89 in
Visibility 5.0 miles
Clouds Mostly Cloudy 3000 ft
Overcast 3700 ft
Windchill 8 °F
Dew Point -0 °F
Humidity 46%
Rainfall 0.00 in
Snow Depth Not available.
7:22 AM 5:47 PM
Waxing Crescent, 9% visible
SPECI KERI 110500Z 29016G24KT 5SM HZ BKN030 OVC037 M08/M15 A2989 RMK AO2 SNE0459 P0000 T10781150 $

10-Day Weather Forecast

Almanac

Astronomy

Feb. 11, 2016 Rise Set
Actual Time
Civil Twilight
Nautical Twilight
Astronomical Twilight
Moon
Length of Visible Light
Length of Day
Tomorrow will be .
, % of the Moon is Illuminated

Today's Extremes

State Highs State Lows

Community

WunderPhotos

Upload Photos

1,892,023 photos uploaded!

WunderBlog® & News

Nearby

Air Quality

  Air Quality AQ Index Pollutant
Not available.

Snow Depth

Station Depth Elevation

Earthquake Activity

City Distance Mag. Time & Date
Minimum magnitude displayed is 2.5.

Coastal Water Temperatures

Place Temperature

Stations

Nearby Weather Stations

Station Location Temp. Windchill Dew Point Humidity Wind Precip. Elev Updated Type
                   

Watches & Warnings

Lake Effect Snow Advisory
Issued: 9:10 PM EST Feb. 10, 2016 – National Weather Service

... Lake effect Snow Advisory remains in effect until 4 PM EST
Thursday...

* accumulations... 2 to 5 inches of snow.

* Timing... snow showers will continue into Thursday. The snow
showers are expected to diminish in coverage and intensity on
Thursday... especially in the afternoon.

* Impacts... snow covered roads and reduced visibility during
heavier snow showers and squalls.

* Winds... northwest 15 to 25 mph with gusts up to 30 mph.

* Temperatures... 8 to 18 degrees.

Precautionary/preparedness actions...

In lake effect snow the weather can vary from locally heavy snow
in narrow bands to dry weather just a few miles away. If you will
be traveling across the region be prepared for rapid changes in
Road and visibility conditions. Stay tuned to NOAA Weather Radio
for further details or updates.